Ackley, IA

3:23 PM CST on February 10, 2016 (GMT -0600)
Jensen Farm | | Change Station
CLOSE
Current Station
Personal Weather Station
Location: Iowa Falls, IA
Elevation: 1129 ft
Nearby Weather Stations

Elev 1129 ft 42.50 °N, 93.20 °W | Updated 30 seconds ago

Overcast
Overcast
9.7 °F
Feels Like 10 °F
N
2.0
Wind Variable Wind from ENE
Gusts 9.0 mph

Today
High -- | Low -- °F
--% Chance of Precip.
Yesterday
High -- | Low -- °F
Precip. -- in
Pressure 30.06 in
Visibility 10.0 miles
Clouds Scattered Clouds 2900 ft
Overcast 3600 ft
Windchill 10 °F
Dew Point 8 °F
Humidity 92%
Rainfall 0.00 in
Snow Depth Not available.
7:16 AM 5:37 PM
Waxing Crescent, 7% visible
METAR KIFA 102115Z AUTO 08005KT 10SM -SN SCT029 OVC036 M10/M14 A3006 RMK AO2 T11021138
Pressure 30.06 in
Visibility 10.0 miles
Clouds Scattered Clouds 2900 ft
Overcast 3600 ft
Windchill 10 °F
Dew Point 8 °F
Humidity 92%
Rainfall 0.00 in
Snow Depth Not available.
7:16 AM 5:37 PM
Waxing Crescent, 7% visible
METAR KIFA 102115Z AUTO 08005KT 10SM -SN SCT029 OVC036 M10/M14 A3006 RMK AO2 T11021138

10-Day Weather Forecast

Almanac

Astronomy

Feb. 10, 2016 Rise Set
Actual Time
Civil Twilight
Nautical Twilight
Astronomical Twilight
Moon
Length of Visible Light
Length of Day
Tomorrow will be .
, % of the Moon is Illuminated

Today's Extremes

State Highs State Lows

Community

WunderPhotos

Upload Photos

1,891,949 photos uploaded!

WunderBlog® & News

Nearby

Air Quality

  Air Quality AQ Index Pollutant
Not available.

Snow Depth

Station Depth Elevation

Earthquake Activity

City Distance Mag. Time & Date
Minimum magnitude displayed is 2.5.

Coastal Water Temperatures

Place Temperature

Stations

Nearby Weather Stations

Station Location Temp. Windchill Dew Point Humidity Wind Precip. Elev Updated Type
                   

Watches & Warnings

There are currently no watches in effect.